sensor_id;sensor_type;location;lat;lon;timestamp;pressure;altitude;pressure_sealevel;temperature;humidity
12146;BME280;6136;47.032;15.398;2023-03-25T00:00:25;96956.59;;;10.96;100.00
12146;BME280;6136;47.032;15.398;2023-03-25T00:02:54;96957.09;;;11.01;100.00
12146;BME280;6136;47.032;15.398;2023-03-25T00:05:24;96955.28;;;11.02;100.00
12146;BME280;6136;47.032;15.398;2023-03-25T00:07:53;96941.69;;;11.06;100.00
12146;BME280;6136;47.032;15.398;2023-03-25T00:10:22;96935.78;;;11.03;100.00
12146;BME280;6136;47.032;15.398;2023-03-25T00:12:50;96925.03;;;11.04;100.00
12146;BME280;6136;47.032;15.398;2023-03-25T00:15:18;96923.97;;;11.07;100.00
12146;BME280;6136;47.032;15.398;2023-03-25T00:17:48;96925.75;;;10.95;100.00
12146;BME280;6136;47.032;15.398;2023-03-25T00:20:16;96931.03;;;10.95;100.00
12146;BME280;6136;47.032;15.398;2023-03-25T00:22:46;96916.84;;;10.96;100.00
12146;BME280;6136;47.032;15.398;2023-03-25T00:25:14;96923.19;;;10.94;100.00
12146;BME280;6136;47.032;15.398;2023-03-25T00:27:46;96927.66;;;10.93;100.00
12146;BME280;6136;47.032;15.398;2023-03-25T00:30:18;96910.78;;;10.94;100.00
12146;BME280;6136;47.032;15.398;2023-03-25T00:32:46;96909.31;;;10.90;100.00
12146;BME280;6136;47.032;15.398;2023-03-25T00:35:19;96903.50;;;10.85;100.00
12146;BME280;6136;47.032;15.398;2023-03-25T00:37:51;96910.72;;;10.83;100.00
12146;BME280;6136;47.032;15.398;2023-03-25T00:40:23;96909.03;;;10.82;100.00
12146;BME280;6136;47.032;15.398;2023-03-25T00:42:51;96911.47;;;10.85;100.00
12146;BME280;6136;47.032;15.398;2023-03-25T00:45:20;96907.13;;;10.84;100.00
12146;BME280;6136;47.032;15.398;2023-03-25T00:47:49;96906.50;;;10.80;100.00
12146;BME280;6136;47.032;15.398;2023-03-25T00:50:18;96906.34;;;10.71;100.00
12146;BME280;6136;47.032;15.398;2023-03-25T00:52:47;96908.25;;;10.69;100.00
12146;BME280;6136;47.032;15.398;2023-03-25T00:55:17;96915.69;;;10.64;100.00
12146;BME280;6136;47.032;15.398;2023-03-25T00:57:45;96917.59;;;10.62;100.00
12146;BME280;6136;47.032;15.398;2023-03-25T01:00:16;96919.19;;;10.64;100.00
12146;BME280;6136;47.032;15.398;2023-03-25T01:02:47;96921.66;;;10.55;100.00
12146;BME280;6136;47.032;15.398;2023-03-25T01:05:20;96911.69;;;10.58;100.00
12146;BME280;6136;47.032;15.398;2023-03-25T01:07:48;96909.16;;;10.57;100.00
12146;BME280;6136;47.032;15.398;2023-03-25T01:10:19;96909.34;;;10.54;100.00
12146;BME280;6136;47.032;15.398;2023-03-25T01:12:47;96896.84;;;10.56;100.00
12146;BME280;6136;47.032;15.398;2023-03-25T01:15:17;96899.50;;;10.56;100.00
12146;BME280;6136;47.032;15.398;2023-03-25T01:17:46;96898.75;;;10.54;100.00
12146;BME280;6136;47.032;15.398;2023-03-25T01:20:14;96902.78;;;10.59;100.00
12146;BME280;6136;47.032;15.398;2023-03-25T01:22:42;96902.16;;;10.56;100.00
12146;BME280;6136;47.032;15.398;2023-03-25T01:25:10;96899.50;;;10.56;100.00
12146;BME280;6136;47.032;15.398;2023-03-25T01:27:40;96896.06;;;10.42;100.00
12146;BME280;6136;47.032;15.398;2023-03-25T01:30:09;96896.25;;;10.39;100.00
12146;BME280;6136;47.032;15.398;2023-03-25T01:32:38;96883.03;;;10.39;100.00
12146;BME280;6136;47.032;15.398;2023-03-25T01:35:07;96867.78;;;10.43;100.00
12146;BME280;6136;47.032;15.398;2023-03-25T01:37:36;96859.19;;;10.39;100.00
12146;BME280;6136;47.032;15.398;2023-03-25T01:40:06;96852.44;;;10.35;100.00
12146;BME280;6136;47.032;15.398;2023-03-25T01:42:36;96829.56;;;10.34;100.00
12146;BME280;6136;47.032;15.398;2023-03-25T01:45:18;96820.03;;;10.32;100.00
12146;BME280;6136;47.032;15.398;2023-03-25T01:47:49;96823.22;;;10.24;100.00
12146;BME280;6136;47.032;15.398;2023-03-25T01:50:19;96810.09;;;10.23;100.00
12146;BME280;6136;47.032;15.398;2023-03-25T01:52:50;96814.97;;;10.16;100.00
12146;BME280;6136;47.032;15.398;2023-03-25T01:55:19;96811.38;;;10.17;100.00
12146;BME280;6136;47.032;15.398;2023-03-25T01:57:52;96808.53;;;10.20;100.00
12146;BME280;6136;47.032;15.398;2023-03-25T02:00:23;96807.00;;;10.16;100.00
12146;BME280;6136;47.032;15.398;2023-03-25T02:02:54;96807.78;;;10.18;100.00
12146;BME280;6136;47.032;15.398;2023-03-25T02:05:31;96811.38;;;10.17;100.00
12146;BME280;6136;47.032;15.398;2023-03-25T02:08:04;96821.03;;;10.18;100.00
12146;BME280;6136;47.032;15.398;2023-03-25T02:10:35;96827.69;;;10.24;100.00
12146;BME280;6136;47.032;15.398;2023-03-25T02:13:04;96831.91;;;10.26;100.00
12146;BME280;6136;47.032;15.398;2023-03-25T02:15:44;96829.56;;;10.34;100.00
12146;BME280;6136;47.032;15.398;2023-03-25T02:18:35;96830.41;;;10.35;100.00
12146;BME280;6136;47.032;15.398;2023-03-25T02:21:25;96818.28;;;10.43;100.00
12146;BME280;6136;47.032;15.398;2023-03-25T02:24:38;96816.22;;;10.36;100.00
12146;BME280;6136;47.032;15.398;2023-03-25T02:27:19;96798.72;;;10.33;100.00
12146;BME280;6136;47.032;15.398;2023-03-25T02:30:15;96790.88;;;10.32;100.00
12146;BME280;6136;47.032;15.398;2023-03-25T02:36:29;96800.53;;;10.33;100.00
12146;BME280;6136;47.032;15.398;2023-03-25T02:39:03;96805.72;;;10.34;100.00
12146;BME280;6136;47.032;15.398;2023-03-25T02:41:40;96803.91;;;10.35;100.00
12146;BME280;6136;47.032;15.398;2023-03-25T02:44:13;96810.53;;;10.29;100.00
12146;BME280;6136;47.032;15.398;2023-03-25T02:46:46;96800.88;;;10.28;100.00
12146;BME280;6136;47.032;15.398;2023-03-25T02:49:20;96811.22;;;10.31;100.00
12146;BME280;6136;47.032;15.398;2023-03-25T02:51:53;96826.13;;;10.21;100.00
12146;BME280;6136;47.032;15.398;2023-03-25T02:54:26;96829.47;;;10.23;100.00
12146;BME280;6136;47.032;15.398;2023-03-25T02:56:57;96833.81;;;10.24;100.00
12146;BME280;6136;47.032;15.398;2023-03-25T02:59:29;96832.25;;;10.22;100.00
12146;BME280;6136;47.032;15.398;2023-03-25T03:02:02;96821.78;;;10.20;100.00
12146;BME280;6136;47.032;15.398;2023-03-25T03:04:31;96810.50;;;10.17;100.00
12146;BME280;6136;47.032;15.398;2023-03-25T03:07:00;96808.09;;;10.13;100.00
12146;BME280;6136;47.032;15.398;2023-03-25T03:09:37;96819.66;;;10.12;100.00
12146;BME280;6136;47.032;15.398;2023-03-25T03:12:13;96828.53;;;10.11;100.00
12146;BME280;6136;47.032;15.398;2023-03-25T03:14:54;96829.38;;;10.12;100.00
12146;BME280;6136;47.032;15.398;2023-03-25T03:17:26;96833.00;;;10.11;100.00
12146;BME280;6136;47.032;15.398;2023-03-25T03:20:05;96834.47;;;10.15;100.00
12146;BME280;6136;47.032;15.398;2023-03-25T03:22:41;96845.28;;;10.12;100.00
12146;BME280;6136;47.032;15.398;2023-03-25T03:25:19;96836.38;;;10.13;100.00
12146;BME280;6136;47.032;15.398;2023-03-25T03:27:55;96847.19;;;10.10;100.00
12146;BME280;6136;47.032;15.398;2023-03-25T03:30:27;96845.28;;;10.12;100.00
12146;BME280;6136;47.032;15.398;2023-03-25T03:33:02;96860.09;;;10.15;100.00
12146;BME280;6136;47.032;15.398;2023-03-25T03:35:38;96858.00;;;10.07;100.00
12146;BME280;6136;47.032;15.398;2023-03-25T03:38:12;96848.88;;;10.11;100.00
12146;BME280;6136;47.032;15.398;2023-03-25T03:40:48;96854.38;;;10.08;100.00
12146;BME280;6136;47.032;15.398;2023-03-25T03:43:22;96848.66;;;10.01;100.00
12146;BME280;6136;47.032;15.398;2023-03-25T03:45:54;96864.25;;;10.06;100.00
12146;BME280;6136;47.032;15.398;2023-03-25T03:48:28;96872.38;;;10.03;100.00
12146;BME280;6136;47.032;15.398;2023-03-25T03:51:01;96880.03;;;9.95;100.00
12146;BME280;6136;47.032;15.398;2023-03-25T03:53:33;96865.84;;;9.96;100.00
12146;BME280;6136;47.032;15.398;2023-03-25T03:56:06;96874.97;;;9.92;100.00
12146;BME280;6136;47.032;15.398;2023-03-25T03:58:37;96874.97;;;9.92;100.00
12146;BME280;6136;47.032;15.398;2023-03-25T04:01:10;96861.59;;;9.93;100.00
12146;BME280;6136;47.032;15.398;2023-03-25T04:03:45;96869.53;;;9.93;100.00
12146;BME280;6136;47.032;15.398;2023-03-25T04:06:18;96881.97;;;9.93;100.00
12146;BME280;6136;47.032;15.398;2023-03-25T04:08:54;96890.84;;;9.92;100.00
12146;BME280;6136;47.032;15.398;2023-03-25T04:11:31;96896.69;;;9.84;100.00
12146;BME280;6136;47.032;15.398;2023-03-25T04:14:01;96912.41;;;9.86;100.00
12146;BME280;6136;47.032;15.398;2023-03-25T04:16:31;96920.34;;;9.86;100.00
12146;BME280;6136;47.032;15.398;2023-03-25T04:19:02;96913.16;;;9.88;100.00
12146;BME280;6136;47.032;15.398;2023-03-25T04:21:31;96910.00;;;9.83;100.00
12146;BME280;6136;47.032;15.398;2023-03-25T04:23:59;96910.94;;;9.82;100.00
12146;BME280;6136;47.032;15.398;2023-03-25T04:26:29;96918.88;;;9.82;100.00
12146;BME280;6136;47.032;15.398;2023-03-25T04:29:00;96916.25;;;9.82;100.00
12146;BME280;6136;47.032;15.398;2023-03-25T04:31:29;96921.03;;;9.77;100.00
12146;BME280;6136;47.032;15.398;2023-03-25T04:33:59;96918.81;;;9.70;100.00
12146;BME280;6136;47.032;15.398;2023-03-25T04:36:29;96922.91;;;9.74;100.00
12146;BME280;6136;47.032;15.398;2023-03-25T04:38:59;96931.06;;;9.71;100.00
12146;BME280;6136;47.032;15.398;2023-03-25T04:41:29;96941.44;;;9.74;100.00
12146;BME280;6136;47.032;15.398;2023-03-25T04:43:58;96952.03;;;9.74;100.00
12146;BME280;6136;47.032;15.398;2023-03-25T04:46:26;96959.22;;;9.72;100.00
12146;BME280;6136;47.032;15.398;2023-03-25T04:48:54;96950.75;;;9.67;100.00
12146;BME280;6136;47.032;15.398;2023-03-25T04:51:22;96943.66;;;9.68;100.00
12146;BME280;6136;47.032;15.398;2023-03-25T04:53:51;96949.03;;;9.66;100.00
12146;BME280;6136;47.032;15.398;2023-03-25T04:56:19;96960.47;;;9.67;100.00
12146;BME280;6136;47.032;15.398;2023-03-25T04:58:50;96970.41;;;9.63;100.00
12146;BME280;6136;47.032;15.398;2023-03-25T05:01:21;96978.25;;;9.65;100.00
12146;BME280;6136;47.032;15.398;2023-03-25T05:03:57;96976.78;;;9.61;100.00
12146;BME280;6136;47.032;15.398;2023-03-25T05:06:32;96967.03;;;9.61;100.00
12146;BME280;6136;47.032;15.398;2023-03-25T05:09:01;96960.91;;;9.61;100.00
12146;BME280;6136;47.032;15.398;2023-03-25T05:11:32;96974.88;;;9.63;100.00
12146;BME280;6136;47.032;15.398;2023-03-25T05:14:02;96967.75;;;9.63;100.00
12146;BME280;6136;47.032;15.398;2023-03-25T05:16:30;96981.84;;;9.64;100.00
12146;BME280;6136;47.032;15.398;2023-03-25T05:18:58;96978.34;;;9.63;100.00
12146;BME280;6136;47.032;15.398;2023-03-25T05:21:26;96975.69;;;9.63;100.00
12146;BME280;6136;47.032;15.398;2023-03-25T05:23:55;96981.22;;;9.60;100.00
12146;BME280;6136;47.032;15.398;2023-03-25T05:26:24;96981.97;;;9.62;100.00
12146;BME280;6136;47.032;15.398;2023-03-25T05:28:55;96978.34;;;9.63;100.00
12146;BME280;6136;47.032;15.398;2023-03-25T05:31:29;96979.09;;;9.65;100.00
12146;BME280;6136;47.032;15.398;2023-03-25T05:33:57;96981.22;;;9.73;100.00
12146;BME280;6136;47.032;15.398;2023-03-25T05:36:25;96967.91;;;9.74;100.00
12146;BME280;6136;47.032;15.398;2023-03-25T05:38:55;96967.47;;;9.81;100.00
12146;BME280;6136;47.032;15.398;2023-03-25T05:41:25;96962.41;;;9.78;100.00
12146;BME280;6136;47.032;15.398;2023-03-25T05:43:58;96974.25;;;9.85;100.00
12146;BME280;6136;47.032;15.398;2023-03-25T05:46:28;96974.25;;;9.85;100.00
12146;BME280;6136;47.032;15.398;2023-03-25T05:48:57;96949.69;;;9.83;100.00
12146;BME280;6136;47.032;15.398;2023-03-25T05:51:28;96955.41;;;9.89;100.00
12146;BME280;6136;47.032;15.398;2023-03-25T05:54:00;96972.84;;;9.79;100.00
12146;BME280;6136;47.032;15.398;2023-03-25T05:56:28;96981.88;;;9.77;100.00
12146;BME280;6136;47.032;15.398;2023-03-25T05:58:56;96989.38;;;9.83;100.00
12146;BME280;6136;47.032;15.398;2023-03-25T06:01:24;96988.88;;;9.90;100.00
12146;BME280;6136;47.032;15.398;2023-03-25T06:04:01;96987.16;;;9.89;100.00
12146;BME280;6136;47.032;15.398;2023-03-25T06:06:30;96998.06;;;9.85;100.00
12146;BME280;6136;47.032;15.398;2023-03-25T06:09:01;97004.94;;;9.74;100.00
12146;BME280;6136;47.032;15.398;2023-03-25T06:11:30;97004.28;;;9.71;100.00
12146;BME280;6136;47.032;15.398;2023-03-25T06:14:04;97006.81;;;9.72;100.00
12146;BME280;6136;47.032;15.398;2023-03-25T06:16:33;97005.13;;;9.71;100.00
12146;BME280;6136;47.032;15.398;2023-03-25T06:19:04;96994.69;;;9.70;100.00
12146;BME280;6136;47.032;15.398;2023-03-25T06:21:35;96988.22;;;9.74;100.00
12146;BME280;6136;47.032;15.398;2023-03-25T06:24:04;96979.31;;;9.75;100.00
12146;BME280;6136;47.032;15.398;2023-03-25T06:26:32;96985.56;;;9.87;100.00
12146;BME280;6136;47.032;15.398;2023-03-25T06:29:01;96974.69;;;9.91;100.00
12146;BME280;6136;47.032;15.398;2023-03-25T06:31:29;96967.91;;;10.00;100.00
12146;BME280;6136;47.032;15.398;2023-03-25T06:34:00;96967.66;;;10.16;100.00
12146;BME280;6136;47.032;15.398;2023-03-25T06:36:30;96968.97;;;10.23;100.00
12146;BME280;6136;47.032;15.398;2023-03-25T06:39:00;96977.34;;;10.29;100.00
12146;BME280;6136;47.032;15.398;2023-03-25T06:41:31;96971.38;;;10.38;100.00
12146;BME280;6136;47.032;15.398;2023-03-25T06:44:24;96980.16;;;10.52;100.00
12146;BME280;6136;47.032;15.398;2023-03-25T06:47:11;96989.03;;;10.63;100.00
12146;BME280;6136;47.032;15.398;2023-03-25T06:49:44;96979.88;;;10.80;100.00
12146;BME280;6136;47.032;15.398;2023-03-25T06:52:14;96998.03;;;10.97;100.00
12146;BME280;6136;47.032;15.398;2023-03-25T06:54:42;96993.53;;;11.10;100.00
12146;BME280;6136;47.032;15.398;2023-03-25T06:57:11;96992.69;;;11.10;100.00
12146;BME280;6136;47.032;15.398;2023-03-25T06:59:39;97006.06;;;11.08;100.00
12146;BME280;6136;47.032;15.398;2023-03-25T07:02:09;97016.22;;;11.14;100.00
12146;BME280;6136;47.032;15.398;2023-03-25T07:04:39;97015.47;;;11.12;100.00
12146;BME280;6136;47.032;15.398;2023-03-25T07:07:09;97037.03;;;11.08;100.00
12146;BME280;6136;47.032;15.398;2023-03-25T07:09:39;97044.09;;;10.83;100.00
12146;BME280;6136;47.032;15.398;2023-03-25T07:12:07;97046.22;;;10.78;100.00
12146;BME280;6136;47.032;15.398;2023-03-25T07:14:38;97032.63;;;10.83;100.00
12146;BME280;6136;47.032;15.398;2023-03-25T07:17:06;97046.56;;;10.74;100.00
12146;BME280;6136;47.032;15.398;2023-03-25T07:19:35;97043.38;;;10.69;100.00
12146;BME280;6136;47.032;15.398;2023-03-25T07:22:03;97048.38;;;10.73;100.00
12146;BME280;6136;47.032;15.398;2023-03-25T07:24:32;97034.78;;;10.78;100.00
12146;BME280;6136;47.032;15.398;2023-03-25T07:27:02;97032.78;;;10.81;100.00
12146;BME280;6136;47.032;15.398;2023-03-25T07:29:32;97024.69;;;10.83;100.00
12146;BME280;6136;47.032;15.398;2023-03-25T07:32:00;97014.38;;;10.91;100.00
12146;BME280;6136;47.032;15.398;2023-03-25T07:34:28;97010.78;;;10.92;100.00
12146;BME280;6136;47.032;15.398;2023-03-25T07:36:56;97013.22;;;11.19;100.00
12146;BME280;6136;47.032;15.398;2023-03-25T07:39:25;97013.50;;;11.27;100.00
12146;BME280;6136;47.032;15.398;2023-03-25T07:41:53;97003.81;;;11.39;100.00
12146;BME280;6136;47.032;15.398;2023-03-25T07:44:43;97012.34;;;11.66;100.00
12146;BME280;6136;47.032;15.398;2023-03-25T07:47:11;97001.84;;;11.99;100.00
12146;BME280;6136;47.032;15.398;2023-03-25T07:49:40;96998.72;;;12.17;100.00
12146;BME280;6136;47.032;15.398;2023-03-25T07:52:08;96999.81;;;12.25;100.00
12146;BME280;6136;47.032;15.398;2023-03-25T07:54:36;96997.06;;;12.49;100.00
12146;BME280;6136;47.032;15.398;2023-03-25T07:57:05;96998.59;;;12.85;100.00
12146;BME280;6136;47.032;15.398;2023-03-25T07:59:33;97012.69;;;13.19;100.00
12146;BME280;6136;47.032;15.398;2023-03-25T08:02:03;97011.94;;;13.39;100.00
12146;BME280;6136;47.032;15.398;2023-03-25T08:04:31;97018.22;;;13.38;100.00
12146;BME280;6136;47.032;15.398;2023-03-25T08:06:59;97017.38;;;13.38;100.00
12146;BME280;6136;47.032;15.398;2023-03-25T08:09:28;97010.69;;;13.43;100.00
12146;BME280;6136;47.032;15.398;2023-03-25T08:11:56;97009.41;;;13.70;100.00
12146;BME280;6136;47.032;15.398;2023-03-25T08:14:24;97003.34;;;14.09;100.00
12146;BME280;6136;47.032;15.398;2023-03-25T08:16:52;97002.56;;;14.18;100.00
12146;BME280;6136;47.032;15.398;2023-03-25T08:19:22;97024.91;;;14.48;94.37
12146;BME280;6136;47.032;15.398;2023-03-25T08:21:50;97023.34;;;14.24;92.67
12146;BME280;6136;47.032;15.398;2023-03-25T08:24:19;97035.31;;;13.88;94.43
12146;BME280;6136;47.032;15.398;2023-03-25T08:26:47;97043.72;;;13.73;92.97
12146;BME280;6136;47.032;15.398;2023-03-25T08:29:15;97040.78;;;13.55;93.70
12146;BME280;6136;47.032;15.398;2023-03-25T08:31:43;97044.38;;;13.22;96.42
12146;BME280;6136;47.032;15.398;2023-03-25T08:34:19;97042.00;;;12.97;100.00
12146;BME280;6136;47.032;15.398;2023-03-25T08:36:56;97055.41;;;12.95;100.00
12146;BME280;6136;47.032;15.398;2023-03-25T08:39:24;97058.94;;;12.73;100.00
12146;BME280;6136;47.032;15.398;2023-03-25T08:41:55;97068.97;;;12.59;100.00
12146;BME280;6136;47.032;15.398;2023-03-25T08:44:24;97067.84;;;12.50;100.00
12146;BME280;6136;47.032;15.398;2023-03-25T08:46:53;97071.69;;;12.35;100.00
12146;BME280;6136;47.032;15.398;2023-03-25T08:49:21;97075.06;;;12.26;100.00
12146;BME280;6136;47.032;15.398;2023-03-25T08:51:49;97075.34;;;11.99;100.00
12146;BME280;6136;47.032;15.398;2023-03-25T08:54:19;97058.81;;;11.95;100.00
12146;BME280;6136;47.032;15.398;2023-03-25T08:56:47;97043.59;;;11.97;100.00
12146;BME280;6136;47.032;15.398;2023-03-25T08:59:16;97041.69;;;11.99;100.00
12146;BME280;6136;47.032;15.398;2023-03-25T09:01:44;97038.88;;;11.90;100.00
12146;BME280;6136;47.032;15.398;2023-03-25T09:04:12;97041.84;;;11.74;100.00
12146;BME280;6136;47.032;15.398;2023-03-25T09:06:41;97041.72;;;11.52;100.00
12146;BME280;6136;47.032;15.398;2023-03-25T09:09:14;97035.19;;;11.45;100.00
12146;BME280;6136;47.032;15.398;2023-03-25T09:11:43;97018.19;;;11.47;100.00
12146;BME280;6136;47.032;15.398;2023-03-25T09:14:12;97021.91;;;11.45;100.00
12146;BME280;6136;47.032;15.398;2023-03-25T09:16:40;97007.91;;;11.43;100.00
12146;BME280;6136;47.032;15.398;2023-03-25T09:19:08;96997.88;;;11.35;100.00
12146;BME280;6136;47.032;15.398;2023-03-25T09:21:37;96980.88;;;11.38;100.00
12146;BME280;6136;47.032;15.398;2023-03-25T09:24:07;96997.66;;;11.38;100.00
12146;BME280;6136;47.032;15.398;2023-03-25T09:26:35;96989.13;;;11.46;100.00
12146;BME280;6136;47.032;15.398;2023-03-25T09:29:05;96985.25;;;11.50;100.00
12146;BME280;6136;47.032;15.398;2023-03-25T09:31:33;96985.03;;;11.53;100.00
12146;BME280;6136;47.032;15.398;2023-03-25T09:34:01;96988.72;;;11.63;100.00
12146;BME280;6136;47.032;15.398;2023-03-25T09:36:30;96994.13;;;11.61;100.00
12146;BME280;6136;47.032;15.398;2023-03-25T09:38:58;96993.75;;;11.55;100.00
12146;BME280;6136;47.032;15.398;2023-03-25T09:41:37;97004.56;;;11.52;100.00
12146;BME280;6136;47.032;15.398;2023-03-25T09:44:15;97015.66;;;11.46;100.00
12146;BME280;6136;47.032;15.398;2023-03-25T09:46:44;97020.19;;;11.33;100.00
12146;BME280;6136;47.032;15.398;2023-03-25T09:49:16;97036.88;;;11.22;100.00
12146;BME280;6136;47.032;15.398;2023-03-25T09:51:47;97053.44;;;11.13;100.00
12146;BME280;6136;47.032;15.398;2023-03-25T09:54:21;97058.69;;;11.02;100.00
12146;BME280;6136;47.032;15.398;2023-03-25T09:56:54;97075.19;;;11.05;100.00
12146;BME280;6136;47.032;15.398;2023-03-25T09:59:36;97078.09;;;11.02;100.00
12146;BME280;6136;47.032;15.398;2023-03-25T10:02:21;97081.19;;;10.96;100.00
12146;BME280;6136;47.032;15.398;2023-03-25T10:05:03;97082.03;;;10.97;100.00
12146;BME280;6136;47.032;15.398;2023-03-25T10:07:43;97091.75;;;11.09;100.00
12146;BME280;6136;47.032;15.398;2023-03-25T10:10:25;97088.16;;;10.97;99.28
12146;BME280;6136;47.032;15.398;2023-03-25T10:13:03;97089.84;;;10.98;100.00
12146;BME280;6136;47.032;15.398;2023-03-25T10:15:39;97088.41;;;10.94;98.73
12146;BME280;6136;47.032;15.398;2023-03-25T10:18:24;97094.84;;;10.90;100.00
12146;BME280;6136;47.032;15.398;2023-03-25T10:20:58;97102.16;;;10.99;99.70
12146;BME280;6136;47.032;15.398;2023-03-25T10:23:33;97102.41;;;10.96;100.00
12146;BME280;6136;47.032;15.398;2023-03-25T10:26:09;97110.34;;;10.96;100.00
12146;BME280;6136;47.032;15.398;2023-03-25T10:28:40;97099.09;;;10.93;97.11
12146;BME280;6136;47.032;15.398;2023-03-25T10:31:18;97096.03;;;10.86;98.24
12146;BME280;6136;47.032;15.398;2023-03-25T10:33:51;97104.31;;;10.94;95.41
12146;BME280;6136;47.032;15.398;2023-03-25T10:36:23;97087.50;;;11.06;93.74
12146;BME280;6136;47.032;15.398;2023-03-25T10:38:53;97088.75;;;11.13;92.54
12146;BME280;6136;47.032;15.398;2023-03-25T10:41:25;97080.31;;;11.08;94.84
12146;BME280;6136;47.032;15.398;2023-03-25T10:43:54;97075.19;;;11.05;90.73
12146;BME280;6136;47.032;15.398;2023-03-25T10:46:28;97065.25;;;11.09;89.62
12146;BME280;6136;47.032;15.398;2023-03-25T10:48:58;97061.44;;;11.00;91.92
12146;BME280;6136;47.032;15.398;2023-03-25T10:51:28;97050.09;;;10.98;91.38
12146;BME280;6136;47.032;15.398;2023-03-25T10:53:57;97059.28;;;11.05;90.43
12146;BME280;6136;47.032;15.398;2023-03-25T10:56:28;97061.63;;;11.10;88.98
12146;BME280;6136;47.032;15.398;2023-03-25T10:59:02;97072.94;;;11.12;87.97
12146;BME280;6136;47.032;15.398;2023-03-25T11:01:37;97079.59;;;11.30;87.68
12146;BME280;6136;47.032;15.398;2023-03-25T11:04:08;97079.94;;;11.49;84.58
12146;BME280;6136;47.032;15.398;2023-03-25T11:06:38;97064.34;;;11.45;83.80
12146;BME280;6136;47.032;15.398;2023-03-25T11:09:15;97069.00;;;11.54;84.22
12146;BME280;6136;47.032;15.398;2023-03-25T11:11:45;97067.78;;;11.58;83.04
12146;BME280;6136;47.032;15.398;2023-03-25T11:14:14;97076.72;;;11.57;82.43
12146;BME280;6136;47.032;15.398;2023-03-25T11:16:47;97072.22;;;11.46;83.08
12146;BME280;6136;47.032;15.398;2023-03-25T11:19:23;97073.84;;;11.36;85.66
12146;BME280;6136;47.032;15.398;2023-03-25T11:21:54;97084.91;;;11.54;82.40
12146;BME280;6136;47.032;15.398;2023-03-25T11:24:31;97088.81;;;11.61;80.85
12146;BME280;6136;47.032;15.398;2023-03-25T11:27:01;97090.31;;;11.52;82.84
12146;BME280;6136;47.032;15.398;2023-03-25T11:29:30;97079.03;;;11.61;82.53
12146;BME280;6136;47.032;15.398;2023-03-25T11:32:06;97079.75;;;11.63;81.17
12146;BME280;6136;47.032;15.398;2023-03-25T11:34:35;97072.09;;;11.48;80.74
12146;BME280;6136;47.032;15.398;2023-03-25T11:37:16;97078.00;;;11.27;80.73
12146;BME280;6136;47.032;15.398;2023-03-25T11:39:48;97072.19;;;11.22;83.34
12146;BME280;6136;47.032;15.398;2023-03-25T11:42:28;97059.88;;;11.21;82.80
12146;BME280;6136;47.032;15.398;2023-03-25T11:44:59;97051.53;;;11.15;83.76
12146;BME280;6136;47.032;15.398;2023-03-25T11:47:34;97053.97;;;11.18;82.13
12146;BME280;6136;47.032;15.398;2023-03-25T11:50:04;97046.41;;;11.24;81.89
12146;BME280;6136;47.032;15.398;2023-03-25T11:52:38;97038.84;;;11.31;82.02
12146;BME280;6136;47.032;15.398;2023-03-25T11:55:15;97038.22;;;11.27;82.24
12146;BME280;6136;47.032;15.398;2023-03-25T11:57:45;97041.22;;;11.47;82.54
12146;BME280;6136;47.032;15.398;2023-03-25T12:00:35;97043.03;;;11.46;82.59
12146;BME280;6136;47.032;15.398;2023-03-25T12:03:15;97040.97;;;11.74;79.63
12146;BME280;6136;47.032;15.398;2023-03-25T12:05:56;97038.41;;;11.72;79.48
12146;BME280;6136;47.032;15.398;2023-03-25T12:08:28;97040.91;;;11.86;79.63
12146;BME280;6136;47.032;15.398;2023-03-25T12:10:59;97037.41;;;11.86;79.41
12146;BME280;6136;47.032;15.398;2023-03-25T12:13:41;97032.97;;;11.97;79.48
12146;BME280;6136;47.032;15.398;2023-03-25T12:16:23;97030.56;;;11.94;79.06
12146;BME280;6136;47.032;15.398;2023-03-25T12:19:14;97027.03;;;11.94;79.24
12146;BME280;6136;47.032;15.398;2023-03-25T12:22:00;97020.19;;;11.91;79.55
12146;BME280;6136;47.032;15.398;2023-03-25T12:24:45;97018.84;;;11.97;79.38
12146;BME280;6136;47.032;15.398;2023-03-25T12:27:27;97018.00;;;11.96;78.42
12146;BME280;6136;47.032;15.398;2023-03-25T12:30:08;97004.47;;;11.88;78.63
12146;BME280;6136;47.032;15.398;2023-03-25T12:32:44;97009.22;;;12.07;78.46
12146;BME280;6136;47.032;15.398;2023-03-25T12:35:24;97012.13;;;12.04;77.93
12146;BME280;6136;47.032;15.398;2023-03-25T12:38:16;97002.81;;;12.10;78.51
12146;BME280;6136;47.032;15.398;2023-03-25T12:40:58;96998.97;;;12.14;77.44
12146;BME280;6136;47.032;15.398;2023-03-25T12:43:38;96998.13;;;12.13;78.27
12146;BME280;6136;47.032;15.398;2023-03-25T12:46:20;96993.91;;;12.22;77.29
12146;BME280;6136;47.032;15.398;2023-03-25T12:49:11;96996.34;;;12.47;75.34
12146;BME280;6136;47.032;15.398;2023-03-25T12:51:51;97001.41;;;12.50;73.66
12146;BME280;6136;47.032;15.398;2023-03-25T12:54:35;97005.75;;;12.62;73.24
12146;BME280;6136;47.032;15.398;2023-03-25T12:57:19;97010.09;;;12.86;72.67
12146;BME280;6136;47.032;15.398;2023-03-25T13:03:05;96998.34;;;13.74;67.82
12146;BME280;6136;47.032;15.398;2023-03-25T13:05:42;96987.66;;;14.57;64.57
12146;BME280;6136;47.032;15.398;2023-03-25T13:08:17;96985.56;;;15.10;63.10
12146;BME280;6136;47.032;15.398;2023-03-25T13:10:49;96981.38;;;15.37;60.82
12146;BME280;6136;47.032;15.398;2023-03-25T13:13:24;96983.97;;;15.67;59.57
12146;BME280;6136;47.032;15.398;2023-03-25T13:15:59;96987.28;;;15.50;59.55
12146;BME280;6136;47.032;15.398;2023-03-25T13:18:34;96992.88;;;15.08;59.61
12146;BME280;6136;47.032;15.398;2023-03-25T13:21:05;96991.00;;;14.99;61.01
12146;BME280;6136;47.032;15.398;2023-03-25T13:23:44;97000.53;;;16.00;60.19
12146;BME280;6136;47.032;15.398;2023-03-25T13:26:18;96974.03;;;18.67;51.38
12146;BME280;6136;47.032;15.398;2023-03-25T13:28:50;96974.69;;;20.98;44.84